GVE weather

Gordonsville Municipal Airport
Gordonsville, Virginia, United States

Public forecast

Using degrees Fahrenheit for public forecast. Weather courtesy of forecast.io.

METAR (pilot weather report)

Closest report is Orange County Airport, 7.9 nm (14.6 km) NE. Retrieved 2019/07/17 13:35 UTC (3 minutes ago):

KOMH 171335Z AUTO 20004KT 10SM CLR 27/23 A3002 RMK AO2

TAF (pilot weather forecast)

Closest forecast is Charlottesville Albemarle Airport, 13.6 nm (25.2 km) W. Retrieved 2019/07/17 12:27 UTC (1 hour ago):

TAF KCHO 171124Z 1712/1812 VRB03KT 6SM BR SCT150 FM171300 20005KT P6SM SCT150 FM171600 21007KT P6SM SCT050 SCT150 FM172000 21010G18KT P6SM SCT050 BKN150 FM180000 22007KT P6SM VCTS BKN050CB FM180400 VRB03KT P6SM SCT050 BKN150